Nome, AK

3:32 PM AKDT on August 21, 2017 (GMT -0800)
Nome | | Change Station

Elev 36 ft 64.51 °N, 165.45 °W | Updated 39 minutes ago

Light Rain
Light Rain Mist
50 °F
Feels Like 50 °F
N
9
Wind Variable Wind from SSW

Today
High -- | Low -- °F
--% Chance of Precip.
Yesterday
High -- | Low -- °F
Precip. -- in
Pressure 29.82 in
Visibility 2.0 miles
Clouds Overcast 700 ft
Dew Point 50 °F
Humidity 100%
Rainfall 0.26 in
Snow Depth Not available.
7:10 AM 10:56 PM
New Moon, 0% visible
METAR PAOM 212253Z 21008KT 2SM R28/5500VP6000FT -RA BR OVC007 10/10 A2981 RMK AO2 RAB32 SLP096 P0001 T01000100
Pressure 29.82 in
Visibility 2.0 miles
Clouds Overcast 700 ft
Dew Point 50 °F
Humidity 100%
Rainfall 0.26 in
Snow Depth Not available.
7:10 AM 10:56 PM
New Moon, 0% visible
METAR PAOM 212253Z 21008KT 2SM R28/5500VP6000FT -RA BR OVC007 10/10 A2981 RMK AO2 RAB32 SLP096 P0001 T01000100

Get Severe Weather Alerts

Thanks for signing up!

Be on the lookout for a verification email in your inbox.

You'll start receiving the daily forecast at 6 AM.

×

10-Day Weather Forecast

Almanac

Astronomy

Aug. 21, 2017 Rise Set
Actual Time
Civil Twilight
Nautical Twilight
Astronomical Twilight
Moon
Length of Visible Light
Length of Day
Tomorrow will be .
, % of the Moon is Illuminated

Today's Extremes

State Highs State Lows

Community

WunderPhotos

Category 6

Welcome to Category 6. This is the collective home for Weather Underground's featured writeups by Dr. Jeff Masters (right), Bob Henson (left), Chris Burt, and other regular contributors.

Nearby

Air Quality

  Air Quality AQ Index Pollutant
Not available.

Snow Depth

Station Depth Elevation

Earthquake Activity

City Distance Mag. Time & Date
Minimum magnitude displayed is 2.5.

Coastal Water Temperatures

Place Temperature

Stations

Nearby Weather Stations

Station Location Temp. Windchill Dew Point Humidity Wind Precip. Elev Updated Type
                   

Watches & Warnings

There are currently no watches in effect.